Time;durP1;ratioP1;P1;durP2;ratioP2;P2;SDS_P1;SDS_P2;PMS_P1;PMS_P2;Temp;Humidity;BMP_temperature;BMP_pressure;BME280_temperature;BME280_humidity;BME280_pressure;Samples;Min_cycle;Max_cycle;Signal;HPM_P1;HPM_P2
2022/11/24 00:01:08;;;;;;;2.03;1.60;;;19.50;42.30;;;;;;5115303;28;20055;-9
2022/11/24 00:03:34;;;;;;;1.77;1.65;;;19.50;42.30;;;;;;5114742;28;20376;-9
2022/11/24 00:06:08;;;;;;;1.50;1.40;;;19.50;42.30;;;;;;5114915;28;20050;-9
2022/11/24 00:08:36;;;;;;;2.78;1.77;;;19.50;42.30;;;;;;5114450;28;20086;-10
2022/11/24 00:11:10;;;;;;;1.63;1.42;;;19.50;42.30;;;;;;5115129;28;20400;-10
2022/11/24 00:13:39;;;;;;;2.22;1.67;;;19.50;42.30;;;;;;5115097;28;20062;-10
2022/11/24 00:16:15;;;;;;;2.25;1.63;;;19.50;42.30;;;;;;5114958;28;20441;-10
2022/11/24 00:18:43;;;;;;;3.53;1.73;;;19.50;42.30;;;;;;5115228;28;20055;-10
2022/11/24 00:21:10;;;;;;;2.50;1.65;;;19.50;42.30;;;;;;5115222;28;20051;-10
2022/11/24 00:23:36;;;;;;;2.10;1.52;;;19.60;42.30;;;;;;5114487;28;20376;-9
2022/11/24 00:26:08;;;;;;;2.05;1.58;;;19.60;42.30;;;;;;5114582;28;20059;-9
2022/11/24 00:28:34;;;;;;;2.08;1.55;;;19.50;42.20;;;;;;5114506;28;20043;-10
2022/11/24 00:31:00;;;;;;;1.88;1.40;;;19.60;42.20;;;;;;5114710;28;20097;-10
2022/11/24 00:33:26;;;;;;;1.58;1.48;;;19.60;42.20;;;;;;5114431;28;20189;-9
2022/11/24 00:35:57;;;;;;;1.50;1.33;;;19.60;42.20;;;;;;5114325;28;20117;-9
2022/11/24 00:38:23;;;;;;;2.38;1.60;;;19.60;42.20;;;;;;5114478;28;20046;-10
2022/11/24 00:40:50;;;;;;;2.72;1.60;;;19.60;42.20;;;;;;5114363;28;20047;-10
2022/11/24 00:43:15;;;;;;;1.52;1.40;;;19.50;42.30;;;;;;5114150;28;20549;-9
2022/11/24 00:45:41;;;;;;;2.40;1.30;;;19.60;42.30;;;;;;5114296;28;20059;-10
2022/11/24 00:48:07;;;;;;;1.70;1.48;;;19.50;42.30;;;;;;5114160;28;20479;-10
2022/11/24 00:50:33;;;;;;;1.75;1.50;;;19.60;42.20;;;;;;5114349;28;20054;-10
2022/11/24 00:52:58;;;;;;;2.17;1.70;;;19.60;42.30;;;;;;5113293;28;20043;-9
2022/11/24 00:55:24;;;;;;;1.70;1.60;;;19.50;42.20;;;;;;5114101;28;20052;-9
2022/11/24 00:57:50;;;;;;;1.73;1.63;;;19.50;42.20;;;;;;5114451;28;20055;-10
2022/11/24 01:00:16;;;;;;;1.70;1.60;;;19.50;42.30;;;;;;5113996;28;20051;-9
2022/11/24 01:02:42;;;;;;;1.95;1.65;;;19.50;42.30;;;;;;5114392;28;20170;-10
2022/11/24 01:05:08;;;;;;;1.58;1.48;;;19.50;42.30;;;;;;5113958;28;20094;-10
2022/11/24 01:07:34;;;;;;;1.55;1.45;;;19.50;42.20;;;;;;5114438;28;20047;-10
2022/11/24 01:10:00;;;;;;;1.50;1.40;;;19.50;42.30;;;;;;5113591;28;20514;-10
2022/11/24 01:12:26;;;;;;;1.60;1.35;;;19.50;42.30;;;;;;5114409;28;20052;-10
2022/11/24 01:14:52;;;;;;;2.22;1.77;;;19.50;42.30;;;;;;5113839;28;20104;-10
2022/11/24 01:17:18;;;;;;;2.30;1.55;;;19.50;42.30;;;;;;5095286;28;20051;-10
2022/11/24 01:19:46;;;;;;;2.03;1.42;;;19.50;42.30;;;;;;5113333;28;20056;-9
2022/11/24 01:22:12;;;;;;;1.73;1.48;;;19.50;42.30;;;;;;5113906;28;20129;-9
2022/11/24 01:24:38;;;;;;;2.15;1.83;;;19.50;42.30;;;;;;5113473;28;20105;-10
2022/11/24 01:27:03;;;;;;;1.98;1.75;;;19.50;42.20;;;;;;5113378;28;20047;-9
2022/11/24 01:29:29;;;;;;;2.75;1.48;;;19.50;42.30;;;;;;5113163;28;20503;-10
2022/11/24 01:31:55;;;;;;;1.80;1.33;;;19.50;42.30;;;;;;5113398;28;20134;-9
2022/11/24 01:34:20;;;;;;;2.78;1.70;;;19.50;42.20;;;;;;5113426;28;20093;-9
2022/11/24 01:36:46;;;;;;;2.05;1.63;;;19.50;42.20;;;;;;5113454;28;20093;-9
2022/11/24 01:39:12;;;;;;;2.30;2.00;;;19.50;42.30;;;;;;5113334;28;20051;-10
2022/11/24 01:41:38;;;;;;;2.10;1.48;;;19.50;42.20;;;;;;5113412;28;20047;-10
2022/11/24 01:44:25;;;;;;;1.67;1.58;;;19.50;42.20;;;;;;5113838;28;20142;-9
2022/11/24 01:47:01;;;;;;;1.80;1.30;;;19.60;42.20;;;;;;5113302;28;20047;-9
2022/11/24 01:49:35;;;;;;;1.80;1.48;;;19.60;42.20;;;;;;5109132;28;20105;-10
2022/11/24 01:52:24;;;;;;;1.50;1.40;;;19.50;42.30;;;;;;5113500;28;20054;-10
2022/11/24 01:55:00;;;;;;;1.63;1.30;;;19.50;42.20;;;;;;5097308;28;20059;-10
2022/11/24 01:57:31;;;;;;;1.27;1.17;;;19.50;42.30;;;;;;5095201;28;20047;-10
2022/11/24 02:00:08;;;;;;;1.95;1.58;;;19.50;42.20;;;;;;5113112;28;20083;-10
2022/11/24 02:02:42;;;;;;;1.70;1.45;;;19.50;42.20;;;;;;5112689;28;20057;-9
2022/11/24 02:05:11;;;;;;;2.00;1.35;;;19.50;42.20;;;;;;5113356;28;20078;-10
2022/11/24 02:07:37;;;;;;;2.10;1.67;;;19.60;42.20;;;;;;5112986;28;20159;-10
2022/11/24 02:10:14;;;;;;;1.73;1.38;;;19.50;42.20;;;;;;5113669;28;20495;-10
2022/11/24 02:12:43;;;;;;;1.63;1.33;;;19.60;42.20;;;;;;5112975;28;20046;-10
2022/11/24 02:15:10;;;;;;;1.70;1.60;;;19.50;42.20;;;;;;5112934;28;20102;-10
2022/11/24 02:17:37;;;;;;;2.05;1.42;;;19.50;42.20;;;;;;5112792;28;20392;-10
2022/11/24 02:20:06;;;;;;;2.55;1.55;;;19.60;42.20;;;;;;5113255;28;20055;-9
2022/11/24 02:22:39;;;;;;;1.65;1.50;;;19.60;42.20;;;;;;5112695;28;20051;-9
2022/11/24 02:25:22;;;;;;;1.75;1.30;;;19.60;42.20;;;;;;5112905;28;20054;-9
2022/11/24 02:27:48;;;;;;;3.55;1.80;;;19.60;42.20;;;;;;5112839;28;20047;-10
2022/11/24 02:30:14;;;;;;;1.80;1.40;;;19.60;42.20;;;;;;5112664;28;20146;-10
2022/11/24 02:32:41;;;;;;;1.45;1.30;;;19.60;42.20;;;;;;5112952;28;20180;-10
2022/11/24 02:35:09;;;;;;;1.88;1.48;;;19.50;42.20;;;;;;5112761;28;20055;-10
2022/11/24 02:37:34;;;;;;;1.58;1.15;;;19.50;42.20;;;;;;5113049;28;20495;-9
2022/11/24 02:40:00;;;;;;;1.85;1.60;;;19.50;42.20;;;;;;5112649;28;20054;-10
2022/11/24 02:42:29;;;;;;;1.83;1.48;;;19.50;42.20;;;;;;5113018;28;20130;-10
2022/11/24 02:44:59;;;;;;;2.53;1.45;;;19.60;42.20;;;;;;5113127;28;20500;-9
2022/11/24 02:47:26;;;;;;;1.60;1.50;;;19.60;42.20;;;;;;5112522;28;20514;-10
2022/11/24 02:49:53;;;;;;;1.55;1.35;;;19.60;42.20;;;;;;5112297;28;20518;-9
2022/11/24 02:52:18;;;;;;;1.40;1.27;;;19.50;42.10;;;;;;5112799;28;20052;-10
2022/11/24 02:54:44;;;;;;;2.05;1.60;;;19.50;42.20;;;;;;5112317;28;20054;-10
2022/11/24 02:57:10;;;;;;;1.85;1.48;;;19.50;42.10;;;;;;5112603;28;20047;-9
2022/11/24 02:59:36;;;;;;;2.53;1.60;;;19.50;42.20;;;;;;5112510;28;20074;-9
2022/11/24 03:02:02;;;;;;;1.58;1.48;;;19.50;42.20;;;;;;5112173;28;20051;-9
2022/11/24 03:04:27;;;;;;;1.40;1.30;;;19.60;42.20;;;;;;5112153;28;20056;-9
2022/11/24 03:06:53;;;;;;;1.60;1.38;;;19.60;42.20;;;;;;5112149;28;20062;-9
2022/11/24 03:09:19;;;;;;;2.08;1.52;;;19.60;42.20;;;;;;5112383;28;20514;-10
2022/11/24 03:11:44;;;;;;;1.45;1.35;;;19.60;42.20;;;;;;5112585;28;20074;-10
2022/11/24 03:14:10;;;;;;;1.70;1.45;;;19.50;42.10;;;;;;5112288;28;20202;-10
2022/11/24 03:16:36;;;;;;;1.50;1.35;;;19.50;42.10;;;;;;5115610;28;20078;-9
2022/11/24 03:19:02;;;;;;;1.90;1.40;;;19.50;42.20;;;;;;5115617;28;20055;-10
2022/11/24 03:21:28;;;;;;;1.60;1.45;;;19.50;42.20;;;;;;5115613;28;20051;-10
2022/11/24 03:23:53;;;;;;;2.33;1.60;;;19.50;42.20;;;;;;5116021;28;20046;-10
2022/11/24 03:26:21;;;;;;;1.80;1.40;;;19.50;42.20;;;;;;5116104;28;20067;-9
2022/11/24 03:28:47;;;;;;;2.00;1.40;;;19.60;42.20;;;;;;5115730;28;20043;-9
2022/11/24 03:31:13;;;;;;;1.45;1.35;;;19.50;42.20;;;;;;5115403;28;20130;-9
2022/11/24 03:33:38;;;;;;;2.33;1.40;;;19.50;42.20;;;;;;5115664;28;20097;-9
2022/11/24 03:36:05;;;;;;;1.58;1.30;;;19.50;42.20;;;;;;5115628;28;20051;-9
2022/11/24 03:38:32;;;;;;;1.58;1.33;;;19.50;42.20;;;;;;5115323;28;20089;-10
2022/11/24 03:40:57;;;;;;;2.20;1.45;;;19.50;42.20;;;;;;5115228;28;20058;-10
2022/11/24 03:43:23;;;;;;;1.30;1.15;;;19.50;42.20;;;;;;5115620;28;20048;-9
2022/11/24 03:45:49;;;;;;;1.55;1.45;;;19.50;42.20;;;;;;5115294;28;20047;-10
2022/11/24 03:48:16;;;;;;;2.63;1.58;;;19.50;42.20;;;;;;5115125;28;20083;-9
2022/11/24 03:50:43;;;;;;;2.05;1.60;;;19.50;42.20;;;;;;5115010;28;20502;-10
2022/11/24 03:53:09;;;;;;;1.70;1.42;;;19.50;42.20;;;;;;5115075;28;20036;-9
2022/11/24 03:55:34;;;;;;;1.73;1.35;;;19.50;42.70;;;;;;5115150;28;20063;-9
2022/11/24 03:58:00;;;;;;;1.65;1.55;;;19.50;42.20;;;;;;5115240;28;20043;-10
2022/11/24 04:00:26;;;;;;;1.77;1.40;;;19.50;42.20;;;;;;5114840;28;20067;-9
2022/11/24 04:02:53;;;;;;;1.45;1.30;;;19.50;42.20;;;;;;5114871;28;20050;-10
2022/11/24 04:05:18;;;;;;;2.17;1.75;;;19.50;42.20;;;;;;5115203;28;20054;-10
2022/11/24 04:07:44;;;;;;;1.50;1.33;;;19.50;42.70;;;;;;5114848;28;20059;-9
2022/11/24 04:10:10;;;;;;;2.17;1.33;;;19.50;42.20;;;;;;5114711;28;20055;-10
2022/11/24 04:12:44;;;;;;;1.50;1.40;;;19.60;42.20;;;;;;5114739;28;20047;-9
2022/11/24 04:15:18;;;;;;;1.40;1.20;;;19.50;42.20;;;;;;5115107;28;20502;-9
2022/11/24 04:17:45;;;;;;;2.63;1.60;;;19.50;42.20;;;;;;5115212;28;20056;-9
2022/11/24 04:20:12;;;;;;;1.50;1.25;;;19.50;42.20;;;;;;5115176;28;20066;-9
2022/11/24 04:22:38;;;;;;;2.28;1.40;;;19.50;42.20;;;;;;5114551;28;20062;-9
2022/11/24 04:25:05;;;;;;;1.52;1.27;;;19.50;42.10;;;;;;5114877;28;20134;-10
2022/11/24 04:27:36;;;;;;;1.58;1.48;;;19.50;42.10;;;;;;5114416;28;20051;-10
2022/11/24 04:30:03;;;;;;;0.90;0.80;;;19.50;42.10;;;;;;5114919;28;20059;-9
2022/11/24 04:32:29;;;;;;;1.60;1.50;;;19.60;42.20;;;;;;5112653;28;20056;-10
2022/11/24 04:34:55;;;;;;;1.60;1.50;;;19.60;42.20;;;;;;5114356;28;20043;-9
2022/11/24 04:37:20;;;;;;;1.85;1.65;;;19.60;42.10;;;;;;5114438;28;20048;-10
2022/11/24 04:39:46;;;;;;;1.80;1.52;;;19.50;42.10;;;;;;5114421;28;20063;-9
2022/11/24 04:42:12;;;;;;;1.55;1.30;;;19.50;42.10;;;;;;5114605;28;20051;-10
2022/11/24 04:44:38;;;;;;;1.98;1.58;;;19.50;42.10;;;;;;5114235;28;20101;-10
2022/11/24 04:47:04;;;;;;;1.65;1.30;;;19.50;42.10;;;;;;5114150;28;20059;-9
2022/11/24 04:49:30;;;;;;;1.95;1.70;;;19.50;42.10;;;;;;5113919;28;20056;-9
2022/11/24 04:51:56;;;;;;;1.75;1.55;;;19.50;42.10;;;;;;5113950;28;20373;-9
2022/11/24 04:54:22;;;;;;;1.58;1.10;;;19.50;42.20;;;;;;5114201;28;20078;-9
2022/11/24 04:56:53;;;;;;;1.67;1.45;;;19.50;42.10;;;;;;5114068;28;20056;-9
2022/11/24 04:59:19;;;;;;;1.70;1.20;;;19.50;42.20;;;;;;5114302;28;20050;-9
2022/11/24 05:01:45;;;;;;;1.63;1.33;;;19.50;42.40;;;;;;5114615;28;20047;-9
2022/11/24 05:04:13;;;;;;;2.30;1.50;;;19.50;42.20;;;;;;5113858;28;20100;-10
2022/11/24 05:06:39;;;;;;;3.88;1.73;;;19.50;42.20;;;;;;5114166;28;20047;-10
2022/11/24 05:09:07;;;;;;;1.90;1.40;;;19.50;42.20;;;;;;5113878;28;20048;-9
2022/11/24 05:11:33;;;;;;;2.22;1.30;;;19.50;42.20;;;;;;5114165;28;20079;-10
2022/11/24 05:13:59;;;;;;;1.40;1.15;;;19.50;42.20;;;;;;5114348;28;20071;-10
2022/11/24 05:16:25;;;;;;;1.17;1.08;;;19.50;42.20;;;;;;5113813;28;20056;-9
2022/11/24 05:18:51;;;;;;;1.63;1.30;;;19.60;42.20;;;;;;5113457;28;20524;-10
2022/11/24 05:21:17;;;;;;;1.40;1.30;;;19.50;42.20;;;;;;5113635;28;20054;-10
2022/11/24 05:23:43;;;;;;;1.52;1.27;;;19.50;42.20;;;;;;5113541;28;20047;-9
2022/11/24 05:26:09;;;;;;;1.40;1.30;;;19.50;42.10;;;;;;5114129;28;20096;-9
2022/11/24 05:28:34;;;;;;;1.45;1.35;;;19.50;42.20;;;;;;5113623;28;20138;-10
2022/11/24 05:31:02;;;;;;;1.42;1.33;;;19.50;42.20;;;;;;5113672;28;20199;-10
2022/11/24 05:33:28;;;;;;;1.25;1.15;;;19.60;42.20;;;;;;5113481;28;20051;-18
2022/11/24 05:35:59;;;;;;;2.10;1.30;;;19.50;42.10;;;;;;5094530;28;20078;-9
2022/11/24 05:38:25;;;;;;;1.33;1.23;;;19.50;42.10;;;;;;5112876;28;20059;-10
2022/11/24 05:40:51;;;;;;;1.10;1.00;;;19.50;42.10;;;;;;5114013;28;20071;-10
2022/11/24 05:43:16;;;;;;;1.27;1.05;;;19.50;42.10;;;;;;5113243;28;20101;-10
2022/11/24 05:45:44;;;;;;;1.80;1.23;;;19.50;42.20;;;;;;5113263;28;20058;-10
2022/11/24 05:48:12;;;;;;;1.95;1.55;;;19.50;42.20;;;;;;5113319;28;20054;-10
2022/11/24 05:50:39;;;;;;;1.50;1.40;;;19.50;42.20;;;;;;5113179;28;20060;-10
2022/11/24 05:53:09;;;;;;;1.45;1.10;;;19.50;42.20;;;;;;5113026;28;20506;-9
2022/11/24 05:55:35;;;;;;;1.10;1.00;;;19.50;42.20;;;;;;5113629;28;20043;-9
2022/11/24 05:58:03;;;;;;;1.48;1.38;;;19.50;42.20;;;;;;5113474;28;20052;-9
2022/11/24 06:00:31;;;;;;;1.30;1.20;;;19.50;42.20;;;;;;5113453;28;20051;-9
2022/11/24 06:02:56;;;;;;;1.30;1.20;;;19.50;42.20;;;;;;5112955;28;20436;-9
2022/11/24 06:05:22;;;;;;;1.60;1.40;;;19.50;42.20;;;;;;5113197;28;20139;-10
2022/11/24 06:07:48;;;;;;;2.05;1.30;;;19.50;42.10;;;;;;5113462;28;20047;-9
2022/11/24 06:10:18;;;;;;;1.33;1.23;;;19.50;42.10;;;;;;5112872;28;20488;-9
2022/11/24 06:12:44;;;;;;;1.73;1.42;;;19.50;42.20;;;;;;5113572;28;20058;-9
2022/11/24 06:15:10;;;;;;;1.25;1.15;;;19.50;42.20;;;;;;5113048;28;20060;-10
2022/11/24 06:17:37;;;;;;;2.13;1.20;;;19.50;42.20;;;;;;5113509;28;20055;-9
2022/11/24 06:20:05;;;;;;;2.08;1.42;;;19.50;42.20;;;;;;5113130;28;20462;-9
2022/11/24 06:22:31;;;;;;;1.40;1.30;;;19.50;42.20;;;;;;5113047;28;20403;-10
2022/11/24 06:24:56;;;;;;;2.45;1.40;;;19.50;42.20;;;;;;5112871;28;20054;-9
2022/11/24 06:27:23;;;;;;;1.50;1.30;;;19.60;42.80;;;;;;5113090;28;20450;-10
2022/11/24 06:29:48;;;;;;;1.42;1.33;;;19.60;42.20;;;;;;5113329;28;20142;-9
2022/11/24 06:32:14;;;;;;;2.22;1.15;;;19.60;42.20;;;;;;5112634;28;20134;-9
2022/11/24 06:34:40;;;;;;;2.63;1.40;;;19.60;42.20;;;;;;5112794;28;20061;-9
2022/11/24 06:37:05;;;;;;;1.67;1.35;;;19.60;42.20;;;;;;5112521;28;20059;-10
2022/11/24 06:39:31;;;;;;;1.63;1.27;;;19.50;42.20;;;;;;5113035;28;20480;-10
2022/11/24 06:41:57;;;;;;;1.30;1.20;;;19.60;42.20;;;;;;5092371;28;20083;-10
2022/11/24 06:44:23;;;;;;;1.40;1.23;;;19.60;42.20;;;;;;5112607;28;20052;-9
2022/11/24 06:46:48;;;;;;;4.70;1.50;;;19.60;42.20;;;;;;5112586;28;20051;-10
2022/11/24 06:49:14;;;;;;;1.60;1.35;;;19.60;42.20;;;;;;5113279;28;20055;-10
2022/11/24 06:51:40;;;;;;;1.70;1.35;;;19.60;42.20;;;;;;5116067;28;20047;-10
2022/11/24 06:54:07;;;;;;;1.40;1.30;;;19.60;42.30;;;;;;5116335;28;20051;-9
2022/11/24 06:56:34;;;;;;;1.83;1.30;;;19.50;42.30;;;;;;5116023;28;20103;-9
2022/11/24 06:59:00;;;;;;;1.70;1.33;;;19.50;42.30;;;;;;5115010;28;20476;-9
2022/11/24 07:01:28;;;;;;;2.65;1.40;;;19.50;42.30;;;;;;5115854;28;20063;-9
2022/11/24 07:03:55;;;;;;;1.65;1.25;;;19.50;42.30;;;;;;5115754;28;20479;-9
2022/11/24 07:06:22;;;;;;;1.77;1.30;;;19.50;42.30;;;;;;5115762;28;20560;-10
2022/11/24 07:08:49;;;;;;;2.42;1.13;;;19.50;42.30;;;;;;5116299;28;20047;-9
2022/11/24 07:11:17;;;;;;;1.88;1.30;;;19.50;42.90;;;;;;5115759;28;20074;-9
2022/11/24 07:13:44;;;;;;;1.98;1.30;;;19.50;42.40;;;;;;5115638;28;20134;-10
2022/11/24 07:16:14;;;;;;;1.73;1.30;;;19.50;42.40;;;;;;5115731;28;20100;-10
2022/11/24 07:18:41;;;;;;;2.45;1.40;;;19.50;42.40;;;;;;5115514;28;20074;-9
2022/11/24 07:21:06;;;;;;;1.58;1.45;;;19.50;42.40;;;;;;5115484;28;20134;-10
2022/11/24 07:23:32;;;;;;;1.23;1.10;;;19.50;42.50;;;;;;5115400;28;20131;-10
2022/11/24 07:25:58;;;;;;;1.50;1.25;;;19.40;42.40;;;;;;5115420;28;20055;-10
2022/11/24 07:28:24;;;;;;;2.63;1.30;;;19.50;42.40;;;;;;5115660;28;20454;-10
2022/11/24 07:30:49;;;;;;;1.75;1.17;;;19.50;42.40;;;;;;5115290;28;20101;-10
2022/11/24 07:33:19;;;;;;;2.97;1.27;;;19.50;42.40;;;;;;5115195;28;20132;-10
2022/11/24 07:35:45;;;;;;;1.90;1.30;;;19.50;42.40;;;;;;5115062;28;20047;-10
2022/11/24 07:38:11;;;;;;;1.40;1.23;;;19.50;42.40;;;;;;5114306;28;20146;-10
2022/11/24 07:40:36;;;;;;;1.50;1.23;;;19.50;42.40;;;;;;5115126;28;20059;-10
2022/11/24 07:43:02;;;;;;;2.47;1.33;;;19.50;42.90;;;;;;5115426;28;20047;-10
2022/11/24 07:45:29;;;;;;;2.40;1.30;;;19.50;42.40;;;;;;5096264;28;20090;-10
2022/11/24 07:47:54;;;;;;;1.80;1.30;;;19.50;42.40;;;;;;5115064;28;20059;-10
2022/11/24 07:50:20;;;;;;;2.03;1.35;;;19.60;42.40;;;;;;5115166;28;20093;-10
2022/11/24 07:52:46;;;;;;;1.50;1.40;;;19.50;42.30;;;;;;5115175;28;20096;-10
2022/11/24 07:55:11;;;;;;;1.80;1.48;;;19.60;42.40;;;;;;5115058;28;20132;-10
2022/11/24 07:57:37;;;;;;;1.95;1.67;;;19.60;42.30;;;;;;5115075;28;20130;-10
2022/11/24 08:00:06;;;;;;;1.67;1.35;;;19.60;42.30;;;;;;5114598;28;20047;-10
2022/11/24 08:02:32;;;;;;;2.08;1.15;;;19.60;42.30;;;;;;5115074;28;20058;-11
2022/11/24 08:04:58;;;;;;;1.50;1.30;;;19.60;42.40;;;;;;5115051;28;20051;-10
2022/11/24 08:07:24;;;;;;;1.45;1.33;;;19.60;42.30;;;;;;5114720;28;20051;-10
2022/11/24 08:09:51;;;;;;;1.75;1.30;;;19.60;42.30;;;;;;5114679;28;20055;-10
2022/11/24 08:12:20;;;;;;;1.70;1.17;;;19.60;42.30;;;;;;5078892;28;20368;-10
2022/11/24 08:14:49;;;;;;;1.65;1.40;;;19.60;42.30;;;;;;5095862;28;20067;-10
2022/11/24 08:17:16;;;;;;;1.67;1.17;;;19.60;42.30;;;;;;5114548;28;20058;-10
2022/11/24 08:19:43;;;;;;;2.60;1.30;;;19.60;42.30;;;;;;5114441;28;20059;-10
2022/11/24 08:22:09;;;;;;;1.77;1.50;;;19.60;42.30;;;;;;5114646;28;20059;-10
2022/11/24 08:24:36;;;;;;;1.50;1.40;;;19.60;42.30;;;;;;5114299;28;20384;-10
2022/11/24 08:27:02;;;;;;;1.92;1.38;;;19.60;42.30;;;;;;5114424;28;20526;-10
2022/11/24 08:29:29;;;;;;;1.38;1.25;;;19.60;42.30;;;;;;5114272;28;20075;-10
2022/11/24 08:31:57;;;;;;;2.00;1.38;;;19.60;42.30;;;;;;5114396;28;20384;-10
2022/11/24 08:34:24;;;;;;;1.40;1.30;;;19.60;42.30;;;;;;5114691;28;20071;-10
2022/11/24 08:36:51;;;;;;;2.50;1.35;;;19.70;42.30;;;;;;5114384;28;20059;-10
2022/11/24 08:39:17;;;;;;;2.28;1.20;;;19.60;42.20;;;;;;5114292;28;20047;-10
2022/11/24 08:41:43;;;;;;;1.60;1.25;;;19.70;42.30;;;;;;5095774;28;20548;-11
2022/11/24 08:44:09;;;;;;;3.83;1.50;;;19.60;42.30;;;;;;5095255;28;20059;-11
2022/11/24 08:46:35;;;;;;;1.67;1.27;;;19.60;42.30;;;;;;5114102;28;20452;-11
2022/11/24 08:49:02;;;;;;;2.38;1.52;;;19.60;42.30;;;;;;5114002;28;20054;-11
2022/11/24 08:51:28;;;;;;;1.42;1.30;;;19.60;42.30;;;;;;5113916;28;20047;-11
2022/11/24 08:53:55;;;;;;;1.92;1.30;;;19.60;42.30;;;;;;5114005;28;20053;-10
2022/11/24 08:56:21;;;;;;;1.55;1.45;;;19.60;42.40;;;;;;5113979;28;20074;-10
2022/11/24 08:58:47;;;;;;;2.22;1.30;;;19.60;42.30;;;;;;5113247;28;20494;-11
2022/11/24 09:01:15;;;;;;;2.30;1.42;;;19.60;42.30;;;;;;5113638;28;20050;-10
2022/11/24 09:03:43;;;;;;;3.10;1.35;;;19.60;42.30;;;;;;5113091;28;20075;-11
2022/11/24 09:06:09;;;;;;;1.67;1.40;;;19.60;42.30;;;;;;5113834;28;20082;-10
2022/11/24 09:08:36;;;;;;;2.10;1.48;;;19.60;42.30;;;;;;5113170;28;20140;-11
2022/11/24 09:11:14;;;;;;;1.85;1.50;;;19.70;42.30;;;;;;5113228;28;20138;-11
2022/11/24 09:13:40;;;;;;;1.23;1.13;;;19.70;42.30;;;;;;5111487;28;20060;-11
2022/11/24 09:16:15;;;;;;;3.45;1.90;;;19.70;42.30;;;;;;5111013;28;20464;-11
2022/11/24 09:18:41;;;;;;;2.03;1.73;;;19.60;42.30;;;;;;5110951;28;20470;-11
2022/11/24 09:21:17;;;;;;;3.60;1.63;;;19.70;42.70;;;;;;5093544;28;20491;-10
2022/11/24 09:23:44;;;;;;;1.83;1.30;;;19.60;42.60;;;;;;5113482;28;20430;-10
2022/11/24 09:26:17;;;;;;;2.15;1.40;;;19.70;42.60;;;;;;5078256;28;20056;-10
2022/11/24 09:28:44;;;;;;;2.33;1.30;;;19.70;42.70;;;;;;5113956;28;20043;-10
2022/11/24 09:31:12;;;;;;;3.40;1.35;;;19.70;42.60;;;;;;5113076;28;20476;-11
2022/11/24 09:33:38;;;;;;;2.45;1.55;;;19.70;42.50;;;;;;5094634;28;20048;-12
2022/11/24 09:36:05;;;;;;;2.60;1.50;;;19.70;42.50;;;;;;5112296;28;20047;-11
2022/11/24 09:38:31;;;;;;;4.07;1.45;;;19.70;42.50;;;;;;5112043;28;20060;-11
2022/11/24 09:41:21;;;;;;;2.30;1.23;;;19.70;42.50;;;;;;5113195;28;20055;-11
2022/11/24 09:44:15;;;;;;;2.75;1.70;;;19.70;42.50;;;;;;5112964;28;20407;-11
2022/11/24 09:46:49;;;;;;;1.48;1.17;;;19.70;42.50;;;;;;5113000;28;20054;-12
2022/11/24 09:49:22;;;;;;;2.72;1.65;;;19.80;42.50;;;;;;5113167;28;20131;-11
2022/11/24 09:51:53;;;;;;;1.52;1.17;;;19.70;42.50;;;;;;5113050;28;20410;-11
2022/11/24 09:54:24;;;;;;;3.58;1.80;;;19.70;42.50;;;;;;5094604;28;20051;-11
2022/11/24 09:56:51;;;;;;;3.30;1.20;;;19.70;42.50;;;;;;5113056;28;20047;-11
2022/11/24 09:59:22;;;;;;;2.22;1.45;;;19.70;42.50;;;;;;5112969;28;20124;-11
2022/11/24 10:01:49;;;;;;;2.20;1.48;;;19.70;42.50;;;;;;5112726;28;20105;-11
2022/11/24 10:04:23;;;;;;;2.80;1.42;;;19.70;42.50;;;;;;5111589;28;20147;-12
2022/11/24 10:07:18;;;;;;;6.75;1.70;;;19.70;42.60;;;;;;5110652;28;20048;-12
2022/11/24 10:10:09;;;;;;;2.20;1.40;;;19.60;42.50;;;;;;5112001;28;20431;-11
2022/11/24 10:12:55;;;;;;;2.65;1.40;;;19.70;42.40;;;;;;5113092;28;20071;-11
2022/11/24 10:15:59;;;;;;;2.67;1.42;;;19.80;42.40;;;;;;5112275;28;20048;-12
2022/11/24 10:18:41;;;;;;;2.88;1.60;;;19.90;42.30;;;;;;5112796;28;20539;-11
2022/11/24 10:21:18;;;;;;;2.42;1.45;;;19.90;42.20;;;;;;5113272;28;20055;-11
2022/11/24 10:24:21;;;;;;;3.15;1.55;;;19.90;42.10;;;;;;5113584;28;20394;-12
2022/11/24 10:27:09;;;;;;;2.67;1.58;;;19.90;42.20;;;;;;5116308;28;20054;-11
2022/11/24 10:29:40;;;;;;;2.33;1.25;;;19.90;42.10;;;;;;5116341;28;20063;-11
2022/11/24 10:32:18;;;;;;;1.85;1.48;;;19.90;42.10;;;;;;5115993;28;20447;-11
2022/11/24 10:34:48;;;;;;;2.10;1.33;;;19.90;42.10;;;;;;5116038;28;20453;-12
2022/11/24 10:37:21;;;;;;;1.45;1.17;;;19.90;42.20;;;;;;5096863;28;20079;-11
2022/11/24 10:40:02;;;;;;;2.15;1.20;;;19.90;42.80;;;;;;5095438;28;20499;-11
2022/11/24 10:42:37;;;;;;;1.23;1.13;;;19.90;42.30;;;;;;5115938;28;20046;-11
2022/11/24 10:45:12;;;;;;;1.25;1.15;;;19.90;42.30;;;;;;5113807;28;20044;-11
2022/11/24 10:47:39;;;;;;;1.40;1.30;;;19.90;42.20;;;;;;5116315;28;20044;-11
2022/11/24 10:50:27;;;;;;;4.28;1.38;;;19.90;42.20;;;;;;5115928;28;20058;-11
2022/11/24 10:53:11;;;;;;;1.58;1.40;;;19.90;42.30;;;;;;5115987;28;20411;-11
2022/11/24 10:56:12;;;;;;;2.42;1.50;;;19.90;42.30;;;;;;5116264;28;20052;-11
2022/11/24 10:58:38;;;;;;;2.47;1.45;;;19.90;42.30;;;;;;5013343;28;20060;-11
2022/11/24 11:01:12;;;;;;;1.50;1.40;;;19.90;42.30;;;;;;5093153;28;20089;-11
2022/11/24 11:03:57;;;;;;;2.28;1.42;;;19.90;42.30;;;;;;5115581;28;20139;-11
2022/11/24 11:06:25;;;;;;;1.42;1.30;;;19.90;42.30;;;;;;5115344;28;20048;-11
2022/11/24 11:09:07;;;;;;;2.28;1.40;;;19.90;42.80;;;;;;5115417;28;20073;-11
2022/11/24 11:11:34;;;;;;;2.45;1.20;;;19.90;42.30;;;;;;5115546;28;20051;-11
2022/11/24 11:14:03;;;;;;;2.42;1.40;;;20.00;42.30;;;;;;5115239;28;20047;-11
2022/11/24 11:16:41;;;;;;;1.63;1.40;;;20.00;42.20;;;;;;5114689;28;20071;-11
2022/11/24 11:19:38;;;;;;;1.25;1.15;;;20.00;42.20;;;;;;5094700;28;20491;-11
2022/11/24 11:22:10;;;;;;;1.92;1.50;;;20.00;42.20;;;;;;5067727;28;20070;-11
2022/11/24 11:24:42;;;;;;;2.40;1.50;;;20.00;42.20;;;;;;5113850;28;20130;-12
2022/11/24 11:27:21;;;;;;;2.42;1.48;;;20.00;42.30;;;;;;5112524;28;20051;-13
2022/11/24 11:29:47;;;;;;;1.50;1.30;;;20.00;42.30;;;;;;5113703;28;20913;-11
2022/11/24 11:32:26;;;;;;;1.70;1.40;;;19.90;42.30;;;;;;5114838;28;20090;-11
2022/11/24 11:34:55;;;;;;;2.72;1.75;;;19.90;42.40;;;;;;5114071;28;20047;-11
2022/11/24 11:37:26;;;;;;;2.00;1.33;;;19.90;42.50;;;;;;5114072;28;20138;-11
2022/11/24 11:39:54;;;;;;;2.53;1.55;;;19.90;42.50;;;;;;5114533;28;20081;-11
2022/11/24 11:42:32;;;;;;;2.25;1.55;;;19.90;42.40;;;;;;5114297;28;20429;-11
2022/11/24 11:45:09;;;;;;;2.22;1.25;;;19.90;42.40;;;;;;5114411;28;20086;-11
2022/11/24 11:48:00;;;;;;;2.47;1.38;;;19.90;42.50;;;;;;5114729;28;20134;-11
2022/11/24 11:50:51;;;;;;;3.50;1.40;;;19.90;42.50;;;;;;5109500;28;20047;-11
2022/11/24 11:53:54;;;;;;;2.80;1.88;;;19.90;42.50;;;;;;5065788;28;20062;-11
2022/11/24 11:56:31;;;;;;;2.00;1.20;;;19.90;42.50;;;;;;5114112;28;20043;-11
2022/11/24 11:59:22;;;;;;;1.77;1.50;;;19.90;42.50;;;;;;5096390;28;20096;-11
2022/11/24 12:02:10;;;;;;;2.20;1.35;;;19.90;42.50;;;;;;5113345;28;20487;-11
2022/11/24 12:04:41;;;;;;;2.10;1.50;;;19.90;42.60;;;;;;5114044;28;20100;-11
2022/11/24 12:07:16;;;;;;;1.42;1.10;;;19.90;42.60;;;;;;5096057;28;20055;-11
2022/11/24 12:10:11;;;;;;;1.58;1.15;;;19.90;42.60;;;;;;5113357;28;20415;-10
2022/11/24 12:12:48;;;;;;;1.88;1.27;;;19.80;42.50;;;;;;5095490;28;20407;-11
2022/11/24 12:15:38;;;;;;;1.25;1.13;;;19.90;42.60;;;;;;5093425;28;20055;-10
2022/11/24 12:18:17;;;;;;;1.17;0.83;;;19.80;42.60;;;;;;5114157;28;20407;-11
2022/11/24 12:20:58;;;;;;;1.67;1.25;;;19.90;42.70;;;;;;5113784;28;20139;-11
2022/11/24 12:23:55;;;;;;;1.70;1.30;;;19.90;42.70;;;;;;5113946;28;20484;-11
2022/11/24 12:26:27;;;;;;;1.40;1.30;;;19.80;42.70;;;;;;5095389;28;20108;-11
2022/11/24 12:29:31;;;;;;;2.00;1.40;;;19.90;42.70;;;;;;5113541;28;20044;-11
2022/11/24 12:32:25;;;;;;;2.22;1.10;;;19.90;42.70;;;;;;5113621;28;20083;-10
2022/11/24 12:35:20;;;;;;;2.38;1.40;;;19.90;42.70;;;;;;5113621;28;20044;-11
2022/11/24 12:37:56;;;;;;;2.50;1.25;;;19.90;42.70;;;;;;5113087;28;20039;-11
2022/11/24 12:40:56;;;;;;;1.52;1.10;;;19.90;42.70;;;;;;5113748;28;20048;-11
2022/11/24 12:43:31;;;;;;;1.80;1.50;;;19.90;42.70;;;;;;5113103;28;20039;-11
2022/11/24 12:46:15;;;;;;;1.88;1.38;;;19.90;42.70;;;;;;5114213;28;20055;-11
2022/11/24 12:48:44;;;;;;;1.40;1.30;;;19.90;42.80;;;;;;5113724;28;20086;-11
2022/11/24 12:51:32;;;;;;;1.25;1.05;;;19.90;42.80;;;;;;5113921;28;20044;-11
2022/11/24 12:54:05;;;;;;;3.05;1.23;;;19.80;42.80;;;;;;5113545;28;20452;-11
2022/11/24 12:56:40;;;;;;;2.20;1.38;;;19.80;42.80;;;;;;5112673;28;20052;-11
2022/11/24 12:59:17;;;;;;;2.30;1.30;;;19.80;42.80;;;;;;5112265;28;20043;-11
2022/11/24 13:02:02;;;;;;;1.70;1.42;;;19.80;42.80;;;;;;5113680;28;20060;-11
2022/11/24 13:04:38;;;;;;;1.42;1.23;;;19.80;42.80;;;;;;5114068;28;20086;-10
2022/11/24 13:07:12;;;;;;;1.70;1.17;;;19.80;42.90;;;;;;5114161;28;20043;-11